Prospect Creek, Prospect Cree, AK

12:50 AM AKST on February 06, 2016 (GMT -0900)
Bettles | | Change Station
CLOSE
Current Station
Airport
Location: Bettles,
Elevation: 643 ft
Nearby Weather Stations

Elev 643 ft 66.91 °N, 151.53 °W | Updated 57 minutes ago

Scattered Clouds
Scattered Clouds
-6 °F
Feels Like -15 °F
N
4
Wind Variable Wind from North

Today
High -- | Low -- °F
--% Chance of Precip.
Yesterday
High -- | Low -- °F
Precip. -- in
Pressure 29.59 in
Visibility 10.0 miles
Clouds Scattered Clouds 13000 ft
Windchill -15 °F
Dew Point -15 °F
Humidity 65%
Rainfall 0.00 in
Snow Depth Not available.
9:48 AM 4:46 PM
Waning Crescent, 6% visible
METAR PABT 060853Z 01003KT 10SM SCT130 M21/M26 A2951 RMK AO2 SLP019 T12111261 410671222 51017
Pressure 29.59 in
Visibility 10.0 miles
Clouds Scattered Clouds 13000 ft
Windchill -15 °F
Dew Point -15 °F
Humidity 65%
Rainfall 0.00 in
Snow Depth Not available.
9:48 AM 4:46 PM
Waning Crescent, 6% visible
METAR PABT 060853Z 01003KT 10SM SCT130 M21/M26 A2951 RMK AO2 SLP019 T12111261 410671222 51017

10-Day Weather Forecast

Almanac

Astronomy

Feb. 06, 2016 Rise Set
Actual Time
Civil Twilight
Nautical Twilight
Astronomical Twilight
Moon
Length of Visible Light
Length of Day
Tomorrow will be .
, % of the Moon is Illuminated

Today's Extremes

State Highs State Lows

Community

WunderPhotos

Upload Photos

1,890,933 photos uploaded!

WunderBlog® & News

Nearby

Air Quality

  Air Quality AQ Index Pollutant
Not available.

Snow Depth

Station Depth Elevation

Earthquake Activity

City Distance Mag. Time & Date
Minimum magnitude displayed is 2.5.

Coastal Water Temperatures

Place Temperature

Stations

Nearby Weather Stations

Station Location Temp. Windchill Dew Point Humidity Wind Precip. Elev Updated Type
                   

Watches & Warnings

There are currently no watches in effect.